TAF Text Data
IDs:
Format:
Raw Decoded Include METAR

Data at: 0259 UTC 24 Jun 2021

KSNY 240058Z 2401/2424 18014G24KT P6SM VCTS BKN100CB
  FM240200 02011KT P6SM BKN150
  FM240800 32010KT P6SM BKN150
  FM241500 03010G20KT P6SM SCT100
  FM241900 08012G23KT P6SM BKN100 AMD NOT SKED